sensor_id;sensor_type;location;lat;lon;timestamp;P1;durP1;ratioP1;P2;durP2;ratioP2
12038;SDS011;6080;48.818;9.526;2023-04-06T03:00:28;13.67;;;12.33;;
12038;SDS011;6080;48.818;9.526;2023-04-06T03:02:54;13.93;;;12.63;;
12038;SDS011;6080;48.818;9.526;2023-04-06T03:05:20;14.97;;;13.50;;
12038;SDS011;6080;48.818;9.526;2023-04-06T03:07:46;13.27;;;12.07;;
12038;SDS011;6080;48.818;9.526;2023-04-06T03:10:12;12.87;;;11.77;;
12038;SDS011;6080;48.818;9.526;2023-04-06T03:12:38;15.50;;;13.60;;
12038;SDS011;6080;48.818;9.526;2023-04-06T03:15:06;12.67;;;11.27;;
12038;SDS011;6080;48.818;9.526;2023-04-06T03:17:33;13.93;;;12.63;;
12038;SDS011;6080;48.818;9.526;2023-04-06T03:19:59;14.07;;;12.70;;
12038;SDS011;6080;48.818;9.526;2023-04-06T03:22:24;13.30;;;12.10;;
12038;SDS011;6080;48.818;9.526;2023-04-06T03:24:51;13.43;;;12.17;;
12038;SDS011;6080;48.818;9.526;2023-04-06T03:27:17;13.97;;;12.40;;
12038;SDS011;6080;48.818;9.526;2023-04-06T03:29:42;15.10;;;13.17;;
12038;SDS011;6080;48.818;9.526;2023-04-06T03:32:08;16.60;;;13.00;;
12038;SDS011;6080;48.818;9.526;2023-04-06T03:34:35;15.03;;;13.33;;
12038;SDS011;6080;48.818;9.526;2023-04-06T03:37:01;15.67;;;12.43;;
12038;SDS011;6080;48.818;9.526;2023-04-06T03:39:26;14.73;;;13.33;;
12038;SDS011;6080;48.818;9.526;2023-04-06T03:41:52;16.07;;;13.10;;
12038;SDS011;6080;48.818;9.526;2023-04-06T03:44:18;14.47;;;13.13;;
12038;SDS011;6080;48.818;9.526;2023-04-06T03:46:44;13.73;;;12.30;;
12038;SDS011;6080;48.818;9.526;2023-04-06T03:49:10;14.37;;;12.97;;
12038;SDS011;6080;48.818;9.526;2023-04-06T03:51:36;14.53;;;13.10;;
12038;SDS011;6080;48.818;9.526;2023-04-06T03:54:02;15.00;;;13.67;;
12038;SDS011;6080;48.818;9.526;2023-04-06T03:56:28;13.87;;;12.57;;
12038;SDS011;6080;48.818;9.526;2023-04-06T03:58:53;15.63;;;13.93;;
12038;SDS011;6080;48.818;9.526;2023-04-06T04:01:19;14.17;;;12.93;;
12038;SDS011;6080;48.818;9.526;2023-04-06T04:03:45;15.57;;;14.03;;
12038;SDS011;6080;48.818;9.526;2023-04-06T04:06:11;15.47;;;13.87;;
12038;SDS011;6080;48.818;9.526;2023-04-06T04:08:37;13.77;;;12.57;;
12038;SDS011;6080;48.818;9.526;2023-04-06T04:11:03;17.33;;;15.63;;
12038;SDS011;6080;48.818;9.526;2023-04-06T04:13:29;17.47;;;14.00;;
12038;SDS011;6080;48.818;9.526;2023-04-06T04:15:55;18.07;;;15.07;;
12038;SDS011;6080;48.818;9.526;2023-04-06T04:18:21;16.53;;;15.10;;
12038;SDS011;6080;48.818;9.526;2023-04-06T04:20:47;15.30;;;13.83;;
12038;SDS011;6080;48.818;9.526;2023-04-06T04:23:13;13.73;;;12.50;;
12038;SDS011;6080;48.818;9.526;2023-04-06T04:25:38;13.60;;;12.27;;
12038;SDS011;6080;48.818;9.526;2023-04-06T04:28:04;14.33;;;13.03;;
12038;SDS011;6080;48.818;9.526;2023-04-06T04:30:30;13.53;;;12.23;;
12038;SDS011;6080;48.818;9.526;2023-04-06T04:32:56;14.40;;;12.90;;
12038;SDS011;6080;48.818;9.526;2023-04-06T04:35:21;13.77;;;12.47;;
12038;SDS011;6080;48.818;9.526;2023-04-06T04:37:47;14.30;;;13.00;;
12038;SDS011;6080;48.818;9.526;2023-04-06T04:40:13;15.70;;;13.50;;
12038;SDS011;6080;48.818;9.526;2023-04-06T04:42:39;14.80;;;13.30;;
12038;SDS011;6080;48.818;9.526;2023-04-06T04:45:05;15.77;;;13.93;;
12038;SDS011;6080;48.818;9.526;2023-04-06T04:47:31;15.73;;;13.40;;
12038;SDS011;6080;48.818;9.526;2023-04-06T04:49:57;14.67;;;13.27;;
12038;SDS011;6080;48.818;9.526;2023-04-06T04:52:23;15.33;;;13.73;;
12038;SDS011;6080;48.818;9.526;2023-04-06T04:54:49;15.30;;;13.60;;
12038;SDS011;6080;48.818;9.526;2023-04-06T04:57:15;14.90;;;13.40;;
12038;SDS011;6080;48.818;9.526;2023-04-06T04:59:42;14.30;;;12.90;;
12038;SDS011;6080;48.818;9.526;2023-04-06T05:02:09;13.93;;;12.43;;
12038;SDS011;6080;48.818;9.526;2023-04-06T05:04:35;14.33;;;13.03;;
12038;SDS011;6080;48.818;9.526;2023-04-06T05:07:07;15.57;;;13.37;;
12038;SDS011;6080;48.818;9.526;2023-04-06T05:09:34;18.33;;;13.33;;
12038;SDS011;6080;48.818;9.526;2023-04-06T05:12:00;14.03;;;12.63;;
12038;SDS011;6080;48.818;9.526;2023-04-06T05:14:26;22.67;;;14.23;;
12038;SDS011;6080;48.818;9.526;2023-04-06T05:16:53;17.03;;;13.80;;
12038;SDS011;6080;48.818;9.526;2023-04-06T05:19:19;16.33;;;14.20;;
12038;SDS011;6080;48.818;9.526;2023-04-06T05:21:45;16.73;;;14.60;;
12038;SDS011;6080;48.818;9.526;2023-04-06T05:24:11;21.60;;;14.50;;
12038;SDS011;6080;48.818;9.526;2023-04-06T05:26:37;17.80;;;15.90;;
12038;SDS011;6080;48.818;9.526;2023-04-06T05:29:03;17.80;;;16.00;;
12038;SDS011;6080;48.818;9.526;2023-04-06T05:31:28;20.70;;;14.00;;
12038;SDS011;6080;48.818;9.526;2023-04-06T05:33:55;19.03;;;16.43;;
12038;SDS011;6080;48.818;9.526;2023-04-06T05:36:22;16.27;;;14.57;;
12038;SDS011;6080;48.818;9.526;2023-04-06T05:38:47;17.13;;;14.63;;
12038;SDS011;6080;48.818;9.526;2023-04-06T05:41:15;25.50;;;14.20;;
12038;SDS011;6080;48.818;9.526;2023-04-06T05:43:41;16.97;;;14.23;;
12038;SDS011;6080;48.818;9.526;2023-04-06T05:46:07;15.53;;;13.60;;
12038;SDS011;6080;48.818;9.526;2023-04-06T05:48:32;15.37;;;13.77;;
12038;SDS011;6080;48.818;9.526;2023-04-06T05:50:58;16.40;;;14.03;;
12038;SDS011;6080;48.818;9.526;2023-04-06T05:53:25;15.10;;;13.40;;
12038;SDS011;6080;48.818;9.526;2023-04-06T05:55:51;16.80;;;14.33;;
12038;SDS011;6080;48.818;9.526;2023-04-06T05:58:17;16.33;;;14.63;;
12038;SDS011;6080;48.818;9.526;2023-04-06T06:00:43;16.57;;;14.40;;
12038;SDS011;6080;48.818;9.526;2023-04-06T06:03:11;16.20;;;13.27;;
12038;SDS011;6080;48.818;9.526;2023-04-06T06:05:37;14.47;;;12.87;;
12038;SDS011;6080;48.818;9.526;2023-04-06T06:08:03;14.50;;;12.80;;
12038;SDS011;6080;48.818;9.526;2023-04-06T06:10:29;13.73;;;12.43;;
12038;SDS011;6080;48.818;9.526;2023-04-06T06:12:55;12.90;;;11.70;;
12038;SDS011;6080;48.818;9.526;2023-04-06T06:15:21;13.87;;;12.13;;
12038;SDS011;6080;48.818;9.526;2023-04-06T06:17:47;25.50;;;21.37;;
12038;SDS011;6080;48.818;9.526;2023-04-06T06:20:12;20.40;;;18.77;;
12038;SDS011;6080;48.818;9.526;2023-04-06T06:22:38;15.97;;;13.60;;
12038;SDS011;6080;48.818;9.526;2023-04-06T06:25:05;13.20;;;11.47;;
12038;SDS011;6080;48.818;9.526;2023-04-06T06:27:31;14.40;;;12.90;;
12038;SDS011;6080;48.818;9.526;2023-04-06T06:29:57;12.57;;;11.33;;
12038;SDS011;6080;48.818;9.526;2023-04-06T06:32:22;12.83;;;11.57;;
12038;SDS011;6080;48.818;9.526;2023-04-06T06:34:48;13.00;;;11.67;;
12038;SDS011;6080;48.818;9.526;2023-04-06T06:37:14;14.67;;;13.17;;
12038;SDS011;6080;48.818;9.526;2023-04-06T06:39:40;12.20;;;11.13;;
12038;SDS011;6080;48.818;9.526;2023-04-06T06:42:06;18.03;;;11.77;;
12038;SDS011;6080;48.818;9.526;2023-04-06T06:44:31;13.80;;;12.47;;
12038;SDS011;6080;48.818;9.526;2023-04-06T06:46:57;15.00;;;13.20;;
12038;SDS011;6080;48.818;9.526;2023-04-06T06:49:23;13.53;;;12.33;;
12038;SDS011;6080;48.818;9.526;2023-04-06T06:51:49;12.97;;;11.43;;
12038;SDS011;6080;48.818;9.526;2023-04-06T06:54:15;13.07;;;11.47;;
12038;SDS011;6080;48.818;9.526;2023-04-06T06:56:41;14.53;;;10.37;;
12038;SDS011;6080;48.818;9.526;2023-04-06T06:59:06;10.73;;;9.83;;
12038;SDS011;6080;48.818;9.526;2023-04-06T07:01:32;13.13;;;11.77;;
12038;SDS011;6080;48.818;9.526;2023-04-06T07:03:59;11.80;;;10.77;;
12038;SDS011;6080;48.818;9.526;2023-04-06T07:06:25;12.63;;;11.37;;
12038;SDS011;6080;48.818;9.526;2023-04-06T07:08:51;12.77;;;11.57;;
12038;SDS011;6080;48.818;9.526;2023-04-06T07:11:17;15.10;;;11.57;;
12038;SDS011;6080;48.818;9.526;2023-04-06T07:13:43;11.57;;;10.17;;
12038;SDS011;6080;48.818;9.526;2023-04-06T07:16:08;11.67;;;9.77;;
12038;SDS011;6080;48.818;9.526;2023-04-06T07:18:34;11.73;;;10.53;;
12038;SDS011;6080;48.818;9.526;2023-04-06T07:21:00;11.57;;;10.53;;
12038;SDS011;6080;48.818;9.526;2023-04-06T07:23:26;12.70;;;11.50;;
12038;SDS011;6080;48.818;9.526;2023-04-06T07:25:52;13.53;;;12.33;;
12038;SDS011;6080;48.818;9.526;2023-04-06T07:28:19;14.47;;;13.03;;
12038;SDS011;6080;48.818;9.526;2023-04-06T07:30:45;14.33;;;12.83;;
12038;SDS011;6080;48.818;9.526;2023-04-06T07:33:10;12.83;;;11.40;;
12038;SDS011;6080;48.818;9.526;2023-04-06T07:35:36;17.73;;;15.93;;
12038;SDS011;6080;48.818;9.526;2023-04-06T07:38:02;18.03;;;16.23;;
12038;SDS011;6080;48.818;9.526;2023-04-06T07:40:29;14.23;;;12.97;;
12038;SDS011;6080;48.818;9.526;2023-04-06T07:42:56;14.97;;;13.60;;
12038;SDS011;6080;48.818;9.526;2023-04-06T07:45:22;13.63;;;12.33;;
12038;SDS011;6080;48.818;9.526;2023-04-06T07:47:48;14.57;;;13.13;;
12038;SDS011;6080;48.818;9.526;2023-04-06T07:50:15;13.00;;;11.67;;
12038;SDS011;6080;48.818;9.526;2023-04-06T07:52:41;13.43;;;12.03;;
12038;SDS011;6080;48.818;9.526;2023-04-06T07:55:07;14.17;;;12.80;;
12038;SDS011;6080;48.818;9.526;2023-04-06T07:57:33;14.80;;;13.57;;
12038;SDS011;6080;48.818;9.526;2023-04-06T07:59:59;15.70;;;14.20;;
12038;SDS011;6080;48.818;9.526;2023-04-06T08:02:25;13.63;;;12.53;;
12038;SDS011;6080;48.818;9.526;2023-04-06T08:04:51;14.00;;;12.53;;
12038;SDS011;6080;48.818;9.526;2023-04-06T08:07:17;12.97;;;11.60;;
12038;SDS011;6080;48.818;9.526;2023-04-06T08:09:43;12.80;;;10.80;;
12038;SDS011;6080;48.818;9.526;2023-04-06T08:12:08;13.83;;;10.57;;
12038;SDS011;6080;48.818;9.526;2023-04-06T08:14:34;11.93;;;10.60;;
12038;SDS011;6080;48.818;9.526;2023-04-06T08:17:00;12.67;;;10.23;;
12038;SDS011;6080;48.818;9.526;2023-04-06T08:19:26;14.83;;;11.27;;
12038;SDS011;6080;48.818;9.526;2023-04-06T08:21:52;11.93;;;10.73;;
12038;SDS011;6080;48.818;9.526;2023-04-06T08:24:18;13.13;;;11.83;;
12038;SDS011;6080;48.818;9.526;2023-04-06T08:26:44;12.43;;;11.13;;
12038;SDS011;6080;48.818;9.526;2023-04-06T08:29:09;15.17;;;12.37;;
12038;SDS011;6080;48.818;9.526;2023-04-06T08:31:36;14.60;;;12.63;;
12038;SDS011;6080;48.818;9.526;2023-04-06T08:34:05;13.10;;;11.70;;
12038;SDS011;6080;48.818;9.526;2023-04-06T08:36:31;12.27;;;11.07;;
12038;SDS011;6080;48.818;9.526;2023-04-06T08:38:58;13.93;;;10.93;;
12038;SDS011;6080;48.818;9.526;2023-04-06T08:41:25;12.07;;;10.77;;
12038;SDS011;6080;48.818;9.526;2023-04-06T08:44:00;16.07;;;11.47;;
12038;SDS011;6080;48.818;9.526;2023-04-06T08:46:30;12.30;;;10.77;;
12038;SDS011;6080;48.818;9.526;2023-04-06T08:48:59;11.30;;;10.20;;
12038;SDS011;6080;48.818;9.526;2023-04-06T08:51:27;13.33;;;10.77;;
12038;SDS011;6080;48.818;9.526;2023-04-06T08:53:55;12.20;;;10.70;;
12038;SDS011;6080;48.818;9.526;2023-04-06T08:56:23;13.70;;;11.20;;
12038;SDS011;6080;48.818;9.526;2023-04-06T08:58:50;13.37;;;12.17;;
12038;SDS011;6080;48.818;9.526;2023-04-06T09:01:20;14.67;;;12.33;;
12038;SDS011;6080;48.818;9.526;2023-04-06T09:03:48;12.93;;;11.60;;
12038;SDS011;6080;48.818;9.526;2023-04-06T09:06:15;13.57;;;11.13;;
12038;SDS011;6080;48.818;9.526;2023-04-06T09:08:42;13.47;;;11.57;;
12038;SDS011;6080;48.818;9.526;2023-04-06T09:11:08;12.33;;;11.17;;
12038;SDS011;6080;48.818;9.526;2023-04-06T09:13:50;12.77;;;11.43;;
12038;SDS011;6080;48.818;9.526;2023-04-06T09:16:17;13.23;;;11.17;;
12038;SDS011;6080;48.818;9.526;2023-04-06T09:18:44;13.63;;;12.23;;
12038;SDS011;6080;48.818;9.526;2023-04-06T09:21:10;14.50;;;13.00;;
12038;SDS011;6080;48.818;9.526;2023-04-06T09:23:36;13.77;;;12.43;;
12038;SDS011;6080;48.818;9.526;2023-04-06T09:26:09;16.97;;;12.93;;
12038;SDS011;6080;48.818;9.526;2023-04-06T09:31:25;12.93;;;11.60;;
12038;SDS011;6080;48.818;9.526;2023-04-06T09:33:55;15.33;;;13.73;;
12038;SDS011;6080;48.818;9.526;2023-04-06T09:36:31;16.03;;;13.87;;
12038;SDS011;6080;48.818;9.526;2023-04-06T09:38:59;14.67;;;13.37;;
12038;SDS011;6080;48.818;9.526;2023-04-06T09:41:32;16.20;;;14.67;;
12038;SDS011;6080;48.818;9.526;2023-04-06T09:44:03;15.83;;;13.03;;
12038;SDS011;6080;48.818;9.526;2023-04-06T09:46:35;12.33;;;10.73;;
12038;SDS011;6080;48.818;9.526;2023-04-06T09:49:06;13.13;;;11.83;;
12038;SDS011;6080;48.818;9.526;2023-04-06T09:51:36;21.30;;;13.20;;
12038;SDS011;6080;48.818;9.526;2023-04-06T09:54:04;12.83;;;11.70;;
12038;SDS011;6080;48.818;9.526;2023-04-06T09:56:33;12.50;;;11.30;;
12038;SDS011;6080;48.818;9.526;2023-04-06T09:59:10;11.17;;;8.83;;
12038;SDS011;6080;48.818;9.526;2023-04-06T10:01:39;10.10;;;9.20;;
12038;SDS011;6080;48.818;9.526;2023-04-06T10:07:09;11.23;;;9.23;;
12038;SDS011;6080;48.818;9.526;2023-04-06T10:09:37;10.83;;;9.77;;
12038;SDS011;6080;48.818;9.526;2023-04-06T10:12:04;9.70;;;8.87;;
12038;SDS011;6080;48.818;9.526;2023-04-06T10:14:34;11.33;;;10.20;;
12038;SDS011;6080;48.818;9.526;2023-04-06T10:17:03;12.53;;;11.23;;
12038;SDS011;6080;48.818;9.526;2023-04-06T10:19:39;9.47;;;8.67;;
12038;SDS011;6080;48.818;9.526;2023-04-06T10:22:15;10.10;;;9.10;;
12038;SDS011;6080;48.818;9.526;2023-04-06T10:24:48;10.70;;;9.77;;
12038;SDS011;6080;48.818;9.526;2023-04-06T10:27:13;10.27;;;9.27;;
12038;SDS011;6080;48.818;9.526;2023-04-06T10:29:43;10.10;;;9.10;;
12038;SDS011;6080;48.818;9.526;2023-04-06T10:32:10;9.63;;;8.73;;
12038;SDS011;6080;48.818;9.526;2023-04-06T10:34:36;9.40;;;8.45;;
12038;SDS011;6080;48.818;9.526;2023-04-06T10:37:12;9.70;;;8.70;;
12038;SDS011;6080;48.818;9.526;2023-04-06T10:39:45;10.43;;;9.53;;
12038;SDS011;6080;48.818;9.526;2023-04-06T10:42:12;10.43;;;9.37;;
12038;SDS011;6080;48.818;9.526;2023-04-06T10:44:43;10.17;;;9.27;;
12038;SDS011;6080;48.818;9.526;2023-04-06T10:47:15;10.68;;;9.45;;
12038;SDS011;6080;48.818;9.526;2023-04-06T10:49:43;9.85;;;9.05;;
12038;SDS011;6080;48.818;9.526;2023-04-06T10:52:09;10.60;;;9.70;;
12038;SDS011;6080;48.818;9.526;2023-04-06T10:54:35;10.47;;;9.37;;
12038;SDS011;6080;48.818;9.526;2023-04-06T10:57:08;10.67;;;9.60;;
12038;SDS011;6080;48.818;9.526;2023-04-06T10:59:34;9.90;;;8.90;;
12038;SDS011;6080;48.818;9.526;2023-04-06T11:02:00;9.73;;;8.67;;
12038;SDS011;6080;48.818;9.526;2023-04-06T11:04:25;9.60;;;8.60;;
12038;SDS011;6080;48.818;9.526;2023-04-06T11:06:51;9.20;;;8.40;;
12038;SDS011;6080;48.818;9.526;2023-04-06T11:09:24;9.93;;;8.90;;
12038;SDS011;6080;48.818;9.526;2023-04-06T11:11:51;9.23;;;8.37;;
12038;SDS011;6080;48.818;9.526;2023-04-06T11:14:17;10.03;;;9.13;;
12038;SDS011;6080;48.818;9.526;2023-04-06T11:16:45;11.13;;;10.20;;
12038;SDS011;6080;48.818;9.526;2023-04-06T11:19:13;9.70;;;8.90;;
12038;SDS011;6080;48.818;9.526;2023-04-06T11:24:09;9.35;;;8.45;;
12038;SDS011;6080;48.818;9.526;2023-04-06T11:26:44;10.65;;;9.63;;
12038;SDS011;6080;48.818;9.526;2023-04-06T11:29:20;11.80;;;11.00;;
12038;SDS011;6080;48.818;9.526;2023-04-06T11:31:51;13.07;;;11.85;;
12038;SDS011;6080;48.818;9.526;2023-04-06T11:34:19;12.70;;;11.52;;
12038;SDS011;6080;48.818;9.526;2023-04-06T11:36:47;13.38;;;12.18;;
12038;SDS011;6080;48.818;9.526;2023-04-06T11:39:18;12.13;;;11.23;;
12038;SDS011;6080;48.818;9.526;2023-04-06T11:41:57;12.82;;;11.77;;
12038;SDS011;6080;48.818;9.526;2023-04-06T11:44:37;12.75;;;11.70;;
12038;SDS011;6080;48.818;9.526;2023-04-06T11:47:07;11.23;;;10.25;;
12038;SDS011;6080;48.818;9.526;2023-04-06T11:49:39;14.43;;;13.38;;
12038;SDS011;6080;48.818;9.526;2023-04-06T11:54:48;10.93;;;10.23;;
12038;SDS011;6080;48.818;9.526;2023-04-06T11:57:16;13.23;;;12.23;;
12038;SDS011;6080;48.818;9.526;2023-04-06T11:59:42;13.82;;;12.82;;
12038;SDS011;6080;48.818;9.526;2023-04-06T12:02:08;11.85;;;11.02;;
12038;SDS011;6080;48.818;9.526;2023-04-06T12:04:35;11.82;;;11.02;;
12038;SDS011;6080;48.818;9.526;2023-04-06T12:07:00;15.60;;;14.45;;
12038;SDS011;6080;48.818;9.526;2023-04-06T12:09:26;16.35;;;15.45;;
12038;SDS011;6080;48.818;9.526;2023-04-06T12:11:52;12.30;;;11.55;;
12038;SDS011;6080;48.818;9.526;2023-04-06T12:14:18;14.18;;;13.32;;
12038;SDS011;6080;48.818;9.526;2023-04-06T12:16:44;14.55;;;13.38;;
12038;SDS011;6080;48.818;9.526;2023-04-06T12:19:10;17.35;;;16.10;;
12038;SDS011;6080;48.818;9.526;2023-04-06T12:21:36;13.85;;;12.98;;
12038;SDS011;6080;48.818;9.526;2023-04-06T12:24:05;13.52;;;12.52;;
12038;SDS011;6080;48.818;9.526;2023-04-06T12:26:32;16.42;;;15.38;;
12038;SDS011;6080;48.818;9.526;2023-04-06T12:28:58;14.65;;;13.65;;
12038;SDS011;6080;48.818;9.526;2023-04-06T12:31:32;15.25;;;14.07;;
12038;SDS011;6080;48.818;9.526;2023-04-06T12:34:00;13.45;;;12.55;;
12038;SDS011;6080;48.818;9.526;2023-04-06T12:36:28;14.63;;;13.70;;
12038;SDS011;6080;48.818;9.526;2023-04-06T12:38:54;13.75;;;12.95;;
12038;SDS011;6080;48.818;9.526;2023-04-06T12:41:20;17.10;;;16.00;;
12038;SDS011;6080;48.818;9.526;2023-04-06T12:43:46;15.68;;;14.65;;
12038;SDS011;6080;48.818;9.526;2023-04-06T12:46:13;13.82;;;12.82;;
12038;SDS011;6080;48.818;9.526;2023-04-06T12:48:39;15.07;;;14.27;;
12038;SDS011;6080;48.818;9.526;2023-04-06T12:51:05;14.00;;;13.05;;
12038;SDS011;6080;48.818;9.526;2023-04-06T12:53:32;18.10;;;16.90;;
12038;SDS011;6080;48.818;9.526;2023-04-06T12:55:59;17.63;;;16.55;;
12038;SDS011;6080;48.818;9.526;2023-04-06T12:58:25;18.27;;;17.20;;
12038;SDS011;6080;48.818;9.526;2023-04-06T13:00:52;16.75;;;15.68;;
12038;SDS011;6080;48.818;9.526;2023-04-06T13:03:19;15.30;;;14.20;;
12038;SDS011;6080;48.818;9.526;2023-04-06T13:05:46;13.85;;;13.05;;
12038;SDS011;6080;48.818;9.526;2023-04-06T13:08:13;13.52;;;12.63;;
12038;SDS011;6080;48.818;9.526;2023-04-06T13:10:46;18.50;;;17.17;;
12038;SDS011;6080;48.818;9.526;2023-04-06T13:13:23;15.27;;;14.18;;
12038;SDS011;6080;48.818;9.526;2023-04-06T13:15:50;15.48;;;14.48;;
12038;SDS011;6080;48.818;9.526;2023-04-06T13:18:16;16.55;;;15.55;;
12038;SDS011;6080;48.818;9.526;2023-04-06T13:20:42;14.57;;;13.57;;
12038;SDS011;6080;48.818;9.526;2023-04-06T13:23:08;12.18;;;11.38;;
12038;SDS011;6080;48.818;9.526;2023-04-06T13:25:34;10.57;;;9.88;;
12038;SDS011;6080;48.818;9.526;2023-04-06T13:28:00;9.75;;;9.02;;
12038;SDS011;6080;48.818;9.526;2023-04-06T13:30:26;10.43;;;9.35;;
12038;SDS011;6080;48.818;9.526;2023-04-06T13:32:51;12.13;;;11.23;;
12038;SDS011;6080;48.818;9.526;2023-04-06T13:35:17;10.23;;;9.43;;
12038;SDS011;6080;48.818;9.526;2023-04-06T13:37:44;10.32;;;9.30;;
12038;SDS011;6080;48.818;9.526;2023-04-06T13:40:10;9.23;;;8.63;;
12038;SDS011;6080;48.818;9.526;2023-04-06T13:42:36;9.00;;;8.38;;
12038;SDS011;6080;48.818;9.526;2023-04-06T13:45:05;12.88;;;11.98;;
12038;SDS011;6080;48.818;9.526;2023-04-06T13:47:31;15.23;;;14.00;;
12038;SDS011;6080;48.818;9.526;2023-04-06T13:49:57;13.27;;;12.38;;
12038;SDS011;6080;48.818;9.526;2023-04-06T13:52:22;12.38;;;11.55;;
12038;SDS011;6080;48.818;9.526;2023-04-06T13:54:49;9.48;;;8.70;;
12038;SDS011;6080;48.818;9.526;2023-04-06T13:57:15;11.35;;;10.32;;
12038;SDS011;6080;48.818;9.526;2023-04-06T13:59:41;11.82;;;11.02;;
12038;SDS011;6080;48.818;9.526;2023-04-06T14:02:08;14.02;;;12.93;;
12038;SDS011;6080;48.818;9.526;2023-04-06T14:04:35;17.02;;;15.93;;
12038;SDS011;6080;48.818;9.526;2023-04-06T14:07:01;15.90;;;14.60;;
12038;SDS011;6080;48.818;9.526;2023-04-06T14:09:28;18.08;;;16.90;;
12038;SDS011;6080;48.818;9.526;2023-04-06T14:11:55;18.50;;;17.23;;
12038;SDS011;6080;48.818;9.526;2023-04-06T14:14:22;14.07;;;13.18;;
12038;SDS011;6080;48.818;9.526;2023-04-06T14:16:48;14.68;;;13.75;;
12038;SDS011;6080;48.818;9.526;2023-04-06T14:19:15;13.57;;;12.57;;
12038;SDS011;6080;48.818;9.526;2023-04-06T14:21:42;12.40;;;11.23;;
12038;SDS011;6080;48.818;9.526;2023-04-06T14:24:09;11.47;;;10.37;;
12038;SDS011;6080;48.818;9.526;2023-04-06T14:26:35;12.83;;;11.77;;
12038;SDS011;6080;48.818;9.526;2023-04-06T14:29:05;13.00;;;11.83;;
12038;SDS011;6080;48.818;9.526;2023-04-06T14:31:31;12.77;;;11.87;;
12038;SDS011;6080;48.818;9.526;2023-04-06T14:33:57;11.90;;;10.90;;
12038;SDS011;6080;48.818;9.526;2023-04-06T14:36:23;14.20;;;13.20;;
12038;SDS011;6080;48.818;9.526;2023-04-06T14:38:51;14.40;;;13.10;;
12038;SDS011;6080;48.818;9.526;2023-04-06T14:41:22;14.02;;;13.02;;
12038;SDS011;6080;48.818;9.526;2023-04-06T14:43:49;12.67;;;11.60;;
12038;SDS011;6080;48.818;9.526;2023-04-06T14:46:17;12.67;;;11.43;;
12038;SDS011;6080;48.818;9.526;2023-04-06T14:48:43;12.87;;;11.47;;
12038;SDS011;6080;48.818;9.526;2023-04-06T14:51:10;12.67;;;11.67;;
12038;SDS011;6080;48.818;9.526;2023-04-06T14:53:36;12.07;;;11.07;;
12038;SDS011;6080;48.818;9.526;2023-04-06T14:56:02;10.47;;;9.57;;
12038;SDS011;6080;48.818;9.526;2023-04-06T14:58:28;9.77;;;9.03;;
12038;SDS011;6080;48.818;9.526;2023-04-06T15:00:58;10.17;;;9.27;;
12038;SDS011;6080;48.818;9.526;2023-04-06T15:03:25;11.40;;;10.40;;
12038;SDS011;6080;48.818;9.526;2023-04-06T15:05:54;10.93;;;9.93;;
12038;SDS011;6080;48.818;9.526;2023-04-06T15:08:21;11.27;;;10.37;;
12038;SDS011;6080;48.818;9.526;2023-04-06T15:10:50;12.68;;;11.68;;
12038;SDS011;6080;48.818;9.526;2023-04-06T15:13:16;13.20;;;12.20;;
12038;SDS011;6080;48.818;9.526;2023-04-06T15:15:43;13.20;;;12.20;;
12038;SDS011;6080;48.818;9.526;2023-04-06T15:18:09;12.47;;;11.33;;
12038;SDS011;6080;48.818;9.526;2023-04-06T15:20:36;11.77;;;10.77;;
12038;SDS011;6080;48.818;9.526;2023-04-06T15:23:02;9.23;;;8.33;;
12038;SDS011;6080;48.818;9.526;2023-04-06T15:25:29;8.50;;;7.70;;
12038;SDS011;6080;48.818;9.526;2023-04-06T15:27:55;8.20;;;7.50;;
12038;SDS011;6080;48.818;9.526;2023-04-06T15:30:21;9.00;;;8.20;;
12038;SDS011;6080;48.818;9.526;2023-04-06T15:33:00;8.80;;;7.70;;
12038;SDS011;6080;48.818;9.526;2023-04-06T15:35:26;9.03;;;8.33;;
12038;SDS011;6080;48.818;9.526;2023-04-06T15:37:53;8.77;;;7.97;;
12038;SDS011;6080;48.818;9.526;2023-04-06T15:40:20;8.93;;;8.03;;
12038;SDS011;6080;48.818;9.526;2023-04-06T15:42:47;10.17;;;9.27;;
12038;SDS011;6080;48.818;9.526;2023-04-06T15:45:12;10.70;;;9.90;;
12038;SDS011;6080;48.818;9.526;2023-04-06T15:47:39;10.47;;;9.57;;
12038;SDS011;6080;48.818;9.526;2023-04-06T15:50:06;9.90;;;9.10;;
12038;SDS011;6080;48.818;9.526;2023-04-06T15:52:32;9.50;;;8.60;;
12038;SDS011;6080;48.818;9.526;2023-04-06T15:54:58;8.83;;;8.13;;
12038;SDS011;6080;48.818;9.526;2023-04-06T15:57:24;9.60;;;8.73;;
12038;SDS011;6080;48.818;9.526;2023-04-06T15:59:50;9.63;;;8.73;;
12038;SDS011;6080;48.818;9.526;2023-04-06T16:02:16;9.47;;;8.47;;
12038;SDS011;6080;48.818;9.526;2023-04-06T16:04:44;9.47;;;8.60;;
12038;SDS011;6080;48.818;9.526;2023-04-06T16:07:09;8.50;;;7.70;;
12038;SDS011;6080;48.818;9.526;2023-04-06T16:09:35;8.33;;;7.57;;
12038;SDS011;6080;48.818;9.526;2023-04-06T16:12:01;8.87;;;8.17;;
12038;SDS011;6080;48.818;9.526;2023-04-06T16:14:27;9.97;;;9.13;;
12038;SDS011;6080;48.818;9.526;2023-04-06T16:16:53;8.30;;;7.27;;
12038;SDS011;6080;48.818;9.526;2023-04-06T16:19:19;7.57;;;6.97;;
12038;SDS011;6080;48.818;9.526;2023-04-06T16:21:45;8.13;;;7.40;;
12038;SDS011;6080;48.818;9.526;2023-04-06T16:24:11;11.40;;;7.30;;
12038;SDS011;6080;48.818;9.526;2023-04-06T16:26:37;8.40;;;7.00;;
12038;SDS011;6080;48.818;9.526;2023-04-06T16:29:04;7.93;;;7.10;;
12038;SDS011;6080;48.818;9.526;2023-04-06T16:31:30;7.33;;;6.73;;
12038;SDS011;6080;48.818;9.526;2023-04-06T16:33:57;8.43;;;7.50;;
12038;SDS011;6080;48.818;9.526;2023-04-06T16:36:27;10.23;;;8.13;;
12038;SDS011;6080;48.818;9.526;2023-04-06T16:38:54;9.00;;;8.03;;
12038;SDS011;6080;48.818;9.526;2023-04-06T16:41:21;9.13;;;8.23;;
12038;SDS011;6080;48.818;9.526;2023-04-06T16:43:47;9.90;;;8.87;;
12038;SDS011;6080;48.818;9.526;2023-04-06T16:46:13;9.80;;;8.83;;
12038;SDS011;6080;48.818;9.526;2023-04-06T16:48:39;9.47;;;7.43;;
12038;SDS011;6080;48.818;9.526;2023-04-06T16:51:06;9.00;;;7.13;;
12038;SDS011;6080;48.818;9.526;2023-04-06T16:53:33;9.60;;;7.03;;
12038;SDS011;6080;48.818;9.526;2023-04-06T16:56:01;7.07;;;6.47;;
12038;SDS011;6080;48.818;9.526;2023-04-06T16:58:29;7.73;;;7.03;;
12038;SDS011;6080;48.818;9.526;2023-04-06T17:00:56;7.93;;;7.10;;
12038;SDS011;6080;48.818;9.526;2023-04-06T17:03:24;7.43;;;6.73;;
12038;SDS011;6080;48.818;9.526;2023-04-06T17:05:51;7.30;;;6.60;;
12038;SDS011;6080;48.818;9.526;2023-04-06T17:08:16;7.60;;;6.90;;
12038;SDS011;6080;48.818;9.526;2023-04-06T17:10:42;13.07;;;11.33;;
12038;SDS011;6080;48.818;9.526;2023-04-06T17:13:08;12.43;;;11.13;;
12038;SDS011;6080;48.818;9.526;2023-04-06T17:15:34;13.97;;;12.03;;
12038;SDS011;6080;48.818;9.526;2023-04-06T17:18:00;8.33;;;7.57;;
12038;SDS011;6080;48.818;9.526;2023-04-06T17:20:26;8.77;;;8.17;;
12038;SDS011;6080;48.818;9.526;2023-04-06T17:22:52;9.43;;;8.60;;
12038;SDS011;6080;48.818;9.526;2023-04-06T17:25:18;9.73;;;9.00;;
12038;SDS011;6080;48.818;9.526;2023-04-06T17:27:43;8.50;;;7.60;;
12038;SDS011;6080;48.818;9.526;2023-04-06T17:30:10;8.53;;;7.83;;
12038;SDS011;6080;48.818;9.526;2023-04-06T17:32:36;8.10;;;7.40;;
12038;SDS011;6080;48.818;9.526;2023-04-06T17:35:02;9.63;;;7.23;;
12038;SDS011;6080;48.818;9.526;2023-04-06T17:37:28;9.27;;;7.47;;
12038;SDS011;6080;48.818;9.526;2023-04-06T17:39:55;7.93;;;7.23;;
12038;SDS011;6080;48.818;9.526;2023-04-06T17:42:21;7.60;;;7.00;;
12038;SDS011;6080;48.818;9.526;2023-04-06T17:44:47;8.37;;;7.50;;
12038;SDS011;6080;48.818;9.526;2023-04-06T17:47:14;16.33;;;10.43;;
12038;SDS011;6080;48.818;9.526;2023-04-06T17:49:40;13.00;;;11.80;;